Time;durP1;ratioP1;P1;durP2;ratioP2;P2;SDS_P1;SDS_P2;PMS_P1;PMS_P2;Temp;Humidity;BMP_temperature;BMP_pressure;BME280_temperature;BME280_humidity;BME280_pressure;Samples;Min_cycle;Max_cycle;Signal;HPM_P1;HPM_P2
2022/11/27 00:00:55;;;;;;;17.92;8.43;;;;;;;5.99;54.22;100805.53;3145175;28;20040;-65
2022/11/27 00:02:26;;;;;;;20.80;9.48;;;;;;;6.04;54.05;100813.25;3144746;28;20463;-65
2022/11/27 00:03:58;;;;;;;16.73;8.77;;;;;;;5.99;54.19;100795.19;3144036;28;20071;-66
2022/11/27 00:05:30;;;;;;;20.98;8.82;;;;;;;6.06;54.14;100804.59;3144857;28;20169;-65
2022/11/27 00:07:02;;;;;;;25.73;10.52;;;;;;;6.05;54.23;100810.63;3145226;28;20056;-66
2022/11/27 00:08:34;;;;;;;25.13;11.82;;;;;;;5.69;54.31;100752.38;3144097;28;20740;-65
2022/11/27 00:10:07;;;;;;;24.38;11.43;;;;;;;5.85;54.60;100784.94;3144761;28;20135;-65
2022/11/27 00:11:39;;;;;;;21.63;10.60;;;;;;;5.93;54.70;100805.59;3144767;28;20378;-65
2022/11/27 00:13:11;;;;;;;23.33;11.70;;;;;;;5.85;54.69;100792.69;3144665;28;20104;-65
2022/11/27 00:14:43;;;;;;;25.33;12.07;;;;;;;5.95;54.82;100808.16;3144870;28;20579;-65
2022/11/27 00:16:17;;;;;;;24.77;10.80;;;;;;;5.96;54.85;100812.47;3144526;28;20597;-65
2022/11/27 00:17:49;;;;;;;29.58;12.15;;;;;;;5.93;54.85;100810.75;3144608;28;20060;-65
2022/11/27 00:19:21;;;;;;;26.13;11.63;;;;;;;5.93;54.93;100813.34;3144703;28;20049;-65
2022/11/27 00:20:53;;;;;;;28.85;12.18;;;;;;;5.89;55.16;100812.50;3144622;28;20066;-66
2022/11/27 00:22:26;;;;;;;22.02;11.85;;;;;;;5.85;55.21;100810.78;3144450;28;20056;-65
2022/11/27 00:24:00;;;;;;;24.92;12.70;;;;;;;5.87;55.37;100818.53;3144610;28;20120;-66
2022/11/27 00:25:32;;;;;;;27.38;11.32;;;;;;;5.85;55.36;100815.09;3144458;28;20052;-65
2022/11/27 00:27:04;;;;;;;27.73;11.63;;;;;;;5.85;55.44;100820.28;3144288;28;20056;-66
2022/11/27 00:28:36;;;;;;;27.00;12.48;;;;;;;5.85;55.53;100813.38;3144376;28;20521;-66
2022/11/27 00:30:09;;;;;;;28.00;12.20;;;;;;;5.88;55.54;100812.50;3144480;28;20065;-66
2022/11/27 00:31:42;;;;;;;25.45;11.80;;;;;;;5.91;55.48;100815.88;3143255;28;20048;-65
2022/11/27 00:33:14;;;;;;;20.70;10.80;;;;;;;5.94;55.38;100817.63;3141867;28;20147;-66
2022/11/27 00:34:46;;;;;;;32.08;12.15;;;;;;;5.97;55.27;100821.91;3144280;28;20591;-66
2022/11/27 00:36:17;;;;;;;27.65;11.55;;;;;;;5.92;55.34;100812.47;3144502;28;20052;-66
2022/11/27 00:37:49;;;;;;;20.75;11.00;;;;;;;6.03;55.43;100820.13;3144030;28;20048;-66
2022/11/27 00:39:21;;;;;;;23.23;11.52;;;;;;;6.06;55.40;100820.13;3144488;28;20044;-66
2022/11/27 00:40:53;;;;;;;24.83;11.60;;;;;;;6.08;55.30;100823.53;3144633;28;20052;-66
2022/11/27 00:42:25;;;;;;;27.52;11.50;;;;;;;6.00;55.33;100807.22;3144546;28;20048;-66
2022/11/27 00:43:56;;;;;;;23.05;10.70;;;;;;;6.11;55.44;100825.22;3144369;28;20417;-66
2022/11/27 00:45:29;;;;;;;26.58;11.93;;;;;;;6.11;55.66;100823.50;3144275;28;20067;-65
2022/11/27 00:47:02;;;;;;;26.33;12.32;;;;;;;6.11;55.64;100826.06;3144591;28;20037;-66
2022/11/27 00:48:34;;;;;;;27.52;12.32;;;;;;;6.08;55.87;100826.09;3144603;28;20118;-66
2022/11/27 00:50:07;;;;;;;25.15;12.82;;;;;;;5.99;55.74;100809.84;3144043;28;20056;-65
2022/11/27 00:51:39;;;;;;;28.13;12.68;;;;;;;6.08;56.03;100836.44;3144452;28;20041;-65
2022/11/27 00:53:11;;;;;;;23.00;12.40;;;;;;;6.10;55.91;100831.28;3144343;28;20186;-66
2022/11/27 00:54:43;;;;;;;25.92;12.38;;;;;;;6.07;55.90;100831.31;3144254;28;20056;-64
2022/11/27 00:56:17;;;;;;;28.70;11.95;;;;;;;6.09;55.94;100838.19;3144297;28;20628;-66
2022/11/27 00:57:48;;;;;;;22.15;11.57;;;;;;;6.13;55.88;100844.19;3144103;28;20183;-65
2022/11/27 00:59:20;;;;;;;27.75;12.50;;;;;;;6.14;55.94;100846.72;3144611;28;20053;-66
2022/11/27 01:00:55;;;;;;;26.55;11.75;;;;;;;6.17;55.98;100847.59;3144212;28;20076;-64
2022/11/27 01:02:29;;;;;;;26.35;11.40;;;;;;;6.12;56.00;100835.56;3143967;28;20157;-64
2022/11/27 01:04:03;;;;;;;21.98;11.02;;;;;;;6.11;56.00;100841.59;3143423;28;20716;-65
2022/11/27 01:05:36;;;;;;;25.08;12.38;;;;;;;6.10;56.10;100829.53;3144509;28;20045;-65
2022/11/27 01:07:08;;;;;;;24.95;11.57;;;;;;;6.06;56.13;100827.00;3143989;28;20131;-65
2022/11/27 01:08:40;;;;;;;26.13;11.98;;;;;;;6.06;56.02;100838.22;3144229;28;20139;-64
2022/11/27 01:10:12;;;;;;;24.08;11.93;;;;;;;6.05;55.81;100830.47;3144294;28;20056;-65
2022/11/27 01:11:44;;;;;;;25.48;12.23;;;;;;;5.90;55.85;100810.75;3144220;28;20049;-65
2022/11/27 01:13:15;;;;;;;28.23;12.27;;;;;;;5.96;55.79;100826.22;3144315;28;20040;-65
2022/11/27 01:14:47;;;;;;;23.83;11.93;;;;;;;5.84;55.88;100805.66;3144386;28;20597;-65
2022/11/27 01:16:21;;;;;;;23.88;12.30;;;;;;;5.92;55.73;100819.38;3143620;28;20052;-65
2022/11/27 01:17:54;;;;;;;22.75;11.85;;;;;;;5.94;55.76;100820.22;3144091;28;20110;-65
2022/11/27 01:19:26;;;;;;;24.92;11.20;;;;;;;5.91;55.86;100820.22;3144168;28;20052;-65
2022/11/27 01:20:57;;;;;;;23.17;11.02;;;;;;;5.91;55.73;100821.06;3144032;28;20049;-65
2022/11/27 01:22:29;;;;;;;26.23;12.45;;;;;;;5.90;55.74;100818.50;3144264;28;20070;-65
2022/11/27 01:24:02;;;;;;;24.70;11.98;;;;;;;5.87;55.80;100818.53;3144196;28;20044;-65
2022/11/27 01:25:35;;;;;;;23.02;11.57;;;;;;;5.83;55.73;100819.44;3143940;28;20444;-65
2022/11/27 01:27:06;;;;;;;27.25;12.30;;;;;;;5.80;55.96;100819.47;3144501;28;20056;-65
2022/11/27 01:28:39;;;;;;;25.95;11.65;;;;;;;5.77;55.96;100822.94;3144848;28;20069;-66
2022/11/27 01:30:12;;;;;;;23.42;11.73;;;;;;;5.78;55.87;100816.91;3144246;28;20048;-66
2022/11/27 01:31:44;;;;;;;29.10;12.15;;;;;;;5.78;55.71;100818.63;3144202;28;20063;-66
2022/11/27 01:33:18;;;;;;;22.88;12.52;;;;;;;5.56;55.88;100781.78;3143991;28;20498;-66
2022/11/27 01:34:50;;;;;;;29.15;12.73;;;;;;;5.85;55.78;100817.69;3143617;28;20406;-64
2022/11/27 01:36:22;;;;;;;24.80;11.75;;;;;;;5.86;55.72;100819.41;3144087;28;20048;-64
2022/11/27 01:37:54;;;;;;;24.05;12.25;;;;;;;5.83;55.75;100819.44;3144147;28;20083;-65
2022/11/27 01:39:26;;;;;;;23.02;12.30;;;;;;;5.82;55.91;100817.72;3143998;28;20048;-65
2022/11/27 01:40:59;;;;;;;25.20;11.70;;;;;;;5.76;55.80;100804.84;3144413;28;20052;-65
2022/11/27 01:42:31;;;;;;;25.52;11.38;;;;;;;5.82;55.84;100817.72;3143840;28;20044;-65
2022/11/27 01:44:24;;;;;;;24.35;11.00;;;;;;;5.84;55.70;100810.81;3144146;28;20053;-65
2022/11/27 01:45:58;;;;;;;21.63;11.57;;;;;;;5.85;55.83;100815.09;3132047;28;20061;-65
2022/11/27 01:47:45;;;;;;;24.92;11.65;;;;;;;5.86;55.65;100815.09;3146794;28;20113;-65
2022/11/27 01:49:30;;;;;;;24.52;11.95;;;;;;;5.56;55.81;100774.00;3134422;28;20052;-65
2022/11/27 01:51:02;;;;;;;26.88;11.60;;;;;;;5.83;55.98;100814.28;3134605;28;20206;-65
2022/11/27 01:52:37;;;;;;;25.10;12.32;;;;;;;5.84;55.91;100819.41;3146561;28;20118;-65
2022/11/27 01:54:10;;;;;;;24.48;11.23;;;;;;;5.83;55.82;100812.53;3146279;28;20048;-65
2022/11/27 01:55:44;;;;;;;;;;;;;;;5.81;55.89;100821.19;3146872;28;20068;-65
2022/11/27 01:57:21;;;;;;;23.05;11.40;;;;;;;5.82;55.67;100817.72;3146317;28;20354;-65
2022/11/27 01:58:53;;;;;;;27.45;12.73;;;;;;;5.84;55.83;100814.25;3146557;28;20048;-65
2022/11/27 02:00:25;;;;;;;25.95;13.05;;;;;;;5.88;55.73;100817.66;3146315;28;20121;-65
2022/11/27 02:01:58;;;;;;;25.23;13.75;;;;;;;5.89;55.77;100806.47;3146257;28;20507;-65
2022/11/27 02:03:30;;;;;;;;;;;;;;;5.86;55.65;100816.84;3146133;28;20438;-65
2022/11/27 02:05:01;;;;;;;28.35;13.63;;;;;;;5.87;55.63;100806.47;3146534;28;20057;-64
2022/11/27 02:06:33;;;;;;;28.38;14.35;;;;;;;5.91;55.64;100807.28;3146267;28;20143;-65
2022/11/27 02:08:09;;;;;;;29.52;14.82;;;;;;;5.96;55.59;100810.72;3146436;28;20052;-66
2022/11/27 02:09:41;;;;;;;28.42;13.93;;;;;;;5.96;55.65;100810.72;3146178;28;20571;-66
2022/11/27 02:11:21;;;;;;;28.63;15.18;;;;;;;5.99;55.61;100815.00;3133851;28;20106;-66
2022/11/27 02:12:59;;;;;;;29.67;14.82;;;;;;;5.97;55.53;100806.41;3146221;28;20060;-66
2022/11/27 02:14:49;;;;;;;30.08;15.48;;;;;;;6.02;55.63;100809.81;3146436;28;20045;-66
2022/11/27 02:16:29;;;;;;;34.88;15.02;;;;;;;6.02;55.62;100808.06;3146480;28;20492;-66
2022/11/27 02:18:12;;;;;;;28.73;14.73;;;;;;;5.97;55.60;100798.66;3146117;28;20660;-66
2022/11/27 02:20:00;;;;;;;29.17;15.50;;;;;;;5.89;55.57;100788.38;3145991;28;20082;-66
2022/11/27 02:21:39;;;;;;;32.05;15.20;;;;;;;6.05;55.47;100814.94;3146118;28;20655;-66
2022/11/27 02:23:33;;;;;;;29.38;15.00;;;;;;;6.04;55.35;100805.47;3146219;28;20106;-66
2022/11/27 02:25:13;;;;;;;27.33;14.40;;;;;;;6.04;55.62;100808.94;3139609;28;20064;-66
2022/11/27 02:27:11;;;;;;;25.77;13.70;;;;;;;5.75;55.48;100765.22;3146114;28;20463;-66
2022/11/27 02:28:57;;;;;;;32.03;15.73;;;;;;;6.05;55.63;100808.03;3142657;28;20048;-66
2022/11/27 02:30:35;;;;;;;31.48;15.23;;;;;;;6.07;55.73;100810.63;3139326;28;20052;-65
2022/11/27 02:32:12;;;;;;;33.65;14.98;;;;;;;6.06;55.62;100811.47;3133657;28;20041;-65
2022/11/27 02:33:50;;;;;;;28.48;14.45;;;;;;;6.04;55.78;100810.66;3145372;28;20102;-65
2022/11/27 02:35:27;;;;;;;28.38;14.60;;;;;;;6.07;55.72;100815.78;3145866;28;20056;-65
2022/11/27 02:37:04;;;;;;;29.10;14.65;;;;;;;6.10;55.85;100815.75;3146229;28;20513;-65
2022/11/27 02:38:40;;;;;;;30.20;15.40;;;;;;;6.12;55.78;100819.16;3145929;28;20052;-65
2022/11/27 02:40:16;;;;;;;27.77;13.85;;;;;;;6.14;55.81;100825.19;3145782;28;20052;-65
2022/11/27 02:41:52;;;;;;;27.70;14.15;;;;;;;6.14;55.81;100815.69;3141597;28;20758;-64
2022/11/27 02:43:31;;;;;;;29.38;15.20;;;;;;;6.17;55.78;100819.13;3140845;28;20541;-65
2022/11/27 02:45:07;;;;;;;33.92;14.32;;;;;;;6.17;55.76;100822.56;3145684;28;20135;-65
2022/11/27 02:46:41;;;;;;;28.70;13.88;;;;;;;6.18;55.72;100815.66;3145949;28;20461;-65
2022/11/27 02:48:16;;;;;;;36.17;14.63;;;;;;;6.17;55.83;100819.13;3145670;28;20490;-65
2022/11/27 02:49:50;;;;;;;32.05;14.77;;;;;;;6.18;55.82;100818.25;3145858;28;20071;-65
2022/11/27 02:51:26;;;;;;;30.13;15.07;;;;;;;6.18;55.79;100823.41;3145783;28;20052;-65
2022/11/27 02:53:01;;;;;;;31.02;14.63;;;;;;;6.13;55.76;100816.56;3145683;28;20064;-65
2022/11/27 02:54:34;;;;;;;27.70;13.57;;;;;;;6.18;55.77;100828.59;3145647;28;20048;-65
2022/11/27 02:56:12;;;;;;;26.02;13.45;;;;;;;6.18;55.71;100828.59;3145678;28;20151;-65
2022/11/27 02:57:46;;;;;;;27.90;14.02;;;;;;;6.19;55.71;100832.91;3142838;28;20083;-65
2022/11/27 02:59:19;;;;;;;27.25;13.77;;;;;;;6.20;55.72;100834.63;3145565;28;20053;-65
2022/11/27 03:00:54;;;;;;;27.55;13.98;;;;;;;5.79;55.63;100764.31;3145303;28;20048;-65
2022/11/27 03:02:30;;;;;;;27.40;14.00;;;;;;;6.21;55.75;100834.63;3145654;28;20582;-65
2022/11/27 03:04:08;;;;;;;30.05;14.35;;;;;;;5.71;55.83;100763.56;3145239;28;20082;-65
2022/11/27 03:05:42;;;;;;;30.75;13.93;;;;;;;6.13;55.78;100823.50;3145615;28;20049;-65
2022/11/27 03:07:22;;;;;;;27.05;14.00;;;;;;;6.14;55.87;100833.81;3145403;28;20524;-65
2022/11/27 03:08:58;;;;;;;30.38;14.70;;;;;;;6.10;55.82;100831.28;3145534;28;20089;-65
2022/11/27 03:10:37;;;;;;;27.48;13.35;;;;;;;6.05;55.89;100839.06;3145613;28;20119;-65
2022/11/27 03:12:11;;;;;;;27.63;13.55;;;;;;;6.00;55.98;100835.66;3145446;28;20135;-65
2022/11/27 03:13:47;;;;;;;29.75;13.35;;;;;;;5.93;56.09;100834.88;3145335;28;20091;-64
2022/11/27 03:15:20;;;;;;;27.95;13.57;;;;;;;5.88;56.22;100836.59;3144400;28;20052;-65
2022/11/27 03:17:03;;;;;;;29.65;12.73;;;;;;;5.84;56.29;100841.84;3140483;28;20056;-64
2022/11/27 03:18:39;;;;;;;26.95;13.25;;;;;;;5.77;56.50;100837.56;3127973;28;20127;-65
2022/11/27 03:20:17;;;;;;;23.10;13.00;;;;;;;5.74;56.47;100845.34;3140220;28;20165;-65
2022/11/27 03:21:52;;;;;;;26.98;13.27;;;;;;;5.47;56.57;100806.84;3140083;28;20052;-65
2022/11/27 03:23:24;;;;;;;26.02;12.32;;;;;;;5.65;56.90;100839.41;3140235;28;20044;-65
2022/11/27 03:24:56;;;;;;;22.20;12.02;;;;;;;5.61;56.87;100832.53;3140190;28;20049;-65
2022/11/27 03:26:29;;;;;;;25.45;11.43;;;;;;;5.48;57.03;100820.59;3139419;28;20084;-65
2022/11/27 03:28:04;;;;;;;23.05;11.73;;;;;;;5.54;57.14;100830.03;3140118;28;20142;-67
2022/11/27 03:29:40;;;;;;;23.45;12.25;;;;;;;5.53;57.18;100836.06;3140005;28;20048;-65
2022/11/27 03:31:13;;;;;;;23.55;12.70;;;;;;;5.52;57.19;100842.94;3140119;28;20113;-65
2022/11/27 03:32:47;;;;;;;24.53;12.43;;;;;;;5.50;57.27;100846.41;3140149;28;20056;-64
2022/11/27 03:34:19;;;;;;;19.23;10.80;;;;;;;5.46;57.47;100840.41;3140285;28;20130;-65
2022/11/27 03:35:52;;;;;;;27.45;12.90;;;;;;;5.39;57.58;100838.75;3140036;28;20064;-65
2022/11/27 03:37:25;;;;;;;;;;;;;;;5.30;57.57;100844.00;3140638;28;20048;-65
2022/11/27 03:38:57;;;;;;;29.42;13.35;;;;;;;5.28;57.93;100845.72;3140052;28;19925;-65
2022/11/27 03:40:38;;;;;;;23.17;12.55;;;;;;;5.28;57.89;100843.13;3139939;28;20057;-65
2022/11/27 03:42:21;;;;;;;29.23;13.73;;;;;;;5.29;58.04;100837.09;3139726;28;20545;-65
2022/11/27 03:43:58;;;;;;;26.92;12.75;;;;;;;5.23;58.27;100840.56;3139757;28;20044;-65
2022/11/27 03:45:36;;;;;;;25.88;12.45;;;;;;;5.26;58.31;100843.13;3139952;28;20473;-65
2022/11/27 03:47:20;;;;;;;26.38;12.20;;;;;;;5.22;58.36;100842.31;3139763;28;20140;-65
2022/11/27 03:48:59;;;;;;;22.33;11.77;;;;;;;5.23;58.36;100838.00;3139878;28;20052;-65
2022/11/27 03:50:41;;;;;;;20.80;11.60;;;;;;;5.17;58.38;100836.31;3139802;28;20121;-65
2022/11/27 03:52:24;;;;;;;21.30;11.27;;;;;;;5.16;58.27;100834.59;3139884;28;20143;-65
2022/11/27 03:54:05;;;;;;;25.77;11.55;;;;;;;5.18;58.53;100835.47;3139686;28;20460;-65
2022/11/27 03:55:47;;;;;;;23.17;11.02;;;;;;;5.17;58.77;100831.13;3139861;28;20126;-65
2022/11/27 03:57:26;;;;;;;18.60;10.50;;;;;;;4.91;58.97;100796.88;3139504;28;20135;-65
2022/11/27 03:59:02;;;;;;;24.38;11.38;;;;;;;5.04;58.90;100819.19;3139775;28;20445;-66
2022/11/27 04:00:37;;;;;;;22.48;11.60;;;;;;;5.13;58.93;100841.50;3139515;28;20053;-65
2022/11/27 04:02:13;;;;;;;23.85;11.20;;;;;;;5.12;58.91;100840.66;3139547;28;20450;-67
2022/11/27 04:03:45;;;;;;;21.58;10.65;;;;;;;5.13;59.11;100836.34;3139202;28;20147;-65
2022/11/27 04:05:18;;;;;;;23.30;11.57;;;;;;;5.13;59.03;100837.19;3139792;28;20182;-65
2022/11/27 04:06:50;;;;;;;21.50;10.73;;;;;;;5.13;59.02;100829.47;3139839;28;20060;-65
2022/11/27 04:08:23;;;;;;;28.77;11.50;;;;;;;5.14;59.13;100832.88;3139289;28;20052;-65
2022/11/27 04:09:53;;;;;;;21.70;11.10;;;;;;;5.13;59.16;100826.03;3139307;28;20053;-65
2022/11/27 04:11:26;;;;;;;22.80;10.93;;;;;;;5.11;59.21;100827.75;3139763;28;20488;-65
2022/11/27 04:12:58;;;;;;;23.15;11.48;;;;;;;5.11;59.23;100827.75;3139604;28;20052;-65
2022/11/27 04:14:30;;;;;;;22.83;11.65;;;;;;;5.13;59.39;100828.59;3139326;28;20078;-65
2022/11/27 04:16:03;;;;;;;20.33;10.68;;;;;;;5.08;59.27;100815.72;3139429;28;20052;-65
2022/11/27 04:17:35;;;;;;;23.42;12.23;;;;;;;5.15;59.18;100826.88;3139341;28;20048;-65
2022/11/27 04:19:08;;;;;;;23.15;10.90;;;;;;;5.12;59.23;100814.84;3139555;28;20453;-65
2022/11/27 04:20:41;;;;;;;21.63;10.90;;;;;;;4.96;59.14;100795.13;3139716;28;20139;-66
2022/11/27 04:22:13;;;;;;;24.40;11.10;;;;;;;5.15;59.14;100832.91;3138880;28;20507;-65
2022/11/27 04:23:45;;;;;;;27.48;12.43;;;;;;;5.14;59.12;100823.41;3139321;28;20063;-65
2022/11/27 04:25:17;;;;;;;25.27;11.40;;;;;;;5.15;59.29;100829.47;3139381;28;20048;-64
2022/11/27 04:26:49;;;;;;;23.10;11.02;;;;;;;5.15;59.27;100829.47;3139161;28;20075;-65
2022/11/27 04:28:21;;;;;;;23.38;11.75;;;;;;;5.12;59.29;100819.16;3139172;28;20048;-64
2022/11/27 04:29:54;;;;;;;20.90;11.07;;;;;;;5.15;59.36;100825.16;3139434;28;20143;-65
2022/11/27 04:31:24;;;;;;;20.40;10.27;;;;;;;5.15;59.30;100829.47;3139294;28;20098;-65
2022/11/27 04:32:56;;;;;;;24.23;11.13;;;;;;;5.13;59.28;100828.59;3139091;28;20048;-64
2022/11/27 04:34:27;;;;;;;23.52;11.18;;;;;;;5.15;59.39;100834.63;3139155;28;20044;-64
2022/11/27 04:36:01;;;;;;;22.88;10.02;;;;;;;4.94;59.43;100802.03;3139493;28;20060;-65
2022/11/27 04:37:33;;;;;;;22.25;11.07;;;;;;;5.13;59.42;100829.47;3139060;28;20056;-64
2022/11/27 04:39:04;;;;;;;22.92;10.88;;;;;;;5.14;59.37;100831.16;3139572;28;20056;-64
2022/11/27 04:40:36;;;;;;;23.15;12.60;;;;;;;5.14;59.47;100822.56;3139099;28;20056;-66
2022/11/27 04:42:07;;;;;;;25.58;11.65;;;;;;;5.14;59.49;100823.41;3139269;28;20056;-66
2022/11/27 04:43:39;;;;;;;26.35;11.63;;;;;;;5.15;59.39;100825.16;3139518;28;20222;-66
2022/11/27 04:45:11;;;;;;;23.58;11.60;;;;;;;5.15;59.44;100825.16;3138901;28;20102;-66
2022/11/27 04:46:43;;;;;;;25.40;12.05;;;;;;;5.10;59.63;100823.47;3137191;28;20053;-64
2022/11/27 04:48:15;;;;;;;27.17;11.82;;;;;;;5.16;59.64;100833.75;3139228;28;20089;-66
2022/11/27 04:49:47;;;;;;;26.73;11.57;;;;;;;4.93;59.55;100803.75;3139328;28;20250;-64
2022/11/27 04:51:21;;;;;;;26.80;11.75;;;;;;;5.16;59.67;100841.50;3139151;28;20076;-64
2022/11/27 04:52:53;;;;;;;;;;;;;;;5.09;59.51;100839.78;3139655;28;20469;-64
2022/11/27 04:54:25;;;;;;;24.63;11.73;;;;;;;5.07;59.69;100833.81;3139328;28;19924;-65
2022/11/27 04:55:57;;;;;;;22.92;11.35;;;;;;;4.96;59.60;100814.06;3126508;28;20138;-64
2022/11/27 04:57:28;;;;;;;25.13;12.00;;;;;;;5.00;59.69;100820.94;3137765;28;20056;-64
2022/11/27 04:59:00;;;;;;;27.30;12.48;;;;;;;5.11;59.61;100832.91;3139292;28;20058;-64
2022/11/27 05:00:32;;;;;;;21.63;11.90;;;;;;;5.11;59.52;100841.50;3139047;28;20309;-64
2022/11/27 05:02:04;;;;;;;25.17;12.70;;;;;;;5.06;59.72;100830.38;3138980;28;20056;-65
2022/11/27 05:03:36;;;;;;;27.70;12.63;;;;;;;5.11;59.57;100840.66;3138753;28;20115;-64
2022/11/27 05:05:09;;;;;;;23.98;12.82;;;;;;;5.12;59.59;100838.06;3138855;28;20135;-65
2022/11/27 05:06:42;;;;;;;26.33;12.13;;;;;;;5.10;59.46;100833.78;3138988;28;20052;-65
2022/11/27 05:08:14;;;;;;;;;;;;;;;5.04;59.54;100833.81;3139608;28;20409;-65
2022/11/27 05:09:45;;;;;;;22.65;12.10;;;;;;;5.02;59.59;100839.84;3139116;28;19924;-66
2022/11/27 05:11:17;;;;;;;32.88;13.88;;;;;;;5.06;59.72;100844.97;3139087;28;20052;-65
2022/11/27 05:12:49;;;;;;;28.00;13.25;;;;;;;5.06;59.72;100840.69;3138998;28;20048;-65
2022/11/27 05:14:26;;;;;;;27.83;14.20;;;;;;;5.04;59.58;100836.41;3138900;28;20056;-65
2022/11/27 05:15:58;;;;;;;31.55;13.60;;;;;;;5.07;59.72;100842.41;3144014;28;20490;-65
2022/11/27 05:17:30;;;;;;;28.45;13.23;;;;;;;5.07;59.80;100839.81;3144533;28;20059;-66
2022/11/27 05:19:02;;;;;;;25.88;12.85;;;;;;;5.08;59.77;100835.50;3143718;28;20044;-66
2022/11/27 05:20:34;;;;;;;27.90;13.40;;;;;;;5.09;59.86;100847.53;3143229;28;20075;-65
2022/11/27 05:22:07;;;;;;;23.45;11.98;;;;;;;5.09;59.89;100851.00;3143839;28;20506;-65
2022/11/27 05:23:39;;;;;;;29.52;14.05;;;;;;;5.07;59.94;100842.41;3131767;28;20213;-65
2022/11/27 05:25:11;;;;;;;29.90;13.95;;;;;;;5.06;59.86;100848.44;3142897;28;20421;-66
2022/11/27 05:26:43;;;;;;;24.73;12.35;;;;;;;5.05;59.81;100857.03;3144134;28;20143;-65
2022/11/27 05:28:15;;;;;;;24.55;12.82;;;;;;;4.99;59.98;100841.59;3144212;28;20056;-65
2022/11/27 05:29:47;;;;;;;29.08;13.70;;;;;;;4.96;60.04;100845.03;3144075;28;20066;-65
2022/11/27 05:31:19;;;;;;;27.92;14.23;;;;;;;5.02;59.94;100859.63;3143958;28;20049;-64
2022/11/27 05:32:51;;;;;;;27.58;13.07;;;;;;;5.02;59.97;100859.63;3144296;28;20052;-65
2022/11/27 05:34:23;;;;;;;30.15;14.60;;;;;;;5.01;60.05;100853.63;3144038;28;20481;-64
2022/11/27 05:35:55;;;;;;;27.48;13.35;;;;;;;5.01;60.23;100863.94;3143658;28;20052;-65
2022/11/27 05:37:28;;;;;;;28.30;13.50;;;;;;;5.01;60.12;100860.50;3144155;28;20433;-65
2022/11/27 05:39:00;;;;;;;27.90;13.20;;;;;;;5.01;60.18;100858.78;3144083;28;20089;-65
2022/11/27 05:40:32;;;;;;;26.77;12.45;;;;;;;5.00;60.35;100859.66;3144195;28;20059;-65
2022/11/27 05:42:04;;;;;;;27.67;13.05;;;;;;;4.85;60.09;100831.34;3143893;28;20063;-65
2022/11/27 05:43:36;;;;;;;26.75;13.48;;;;;;;5.00;60.23;100859.66;3143754;28;20064;-65
2022/11/27 05:45:09;;;;;;;26.13;13.48;;;;;;;5.01;60.31;100857.94;3143682;28;20513;-65
2022/11/27 05:46:42;;;;;;;28.25;13.55;;;;;;;5.00;60.34;100861.38;3144332;28;20493;-65
2022/11/27 05:48:14;;;;;;;31.20;14.35;;;;;;;4.99;60.46;100852.75;3143808;28;20059;-65
2022/11/27 05:49:46;;;;;;;25.65;13.63;;;;;;;4.98;60.40;100856.22;3143903;28;20049;-65
2022/11/27 05:51:18;;;;;;;26.00;13.70;;;;;;;4.99;60.50;100857.94;3143944;28;20103;-65
2022/11/27 05:52:52;;;;;;;29.20;13.43;;;;;;;5.02;60.54;100865.66;3144035;28;20056;-65
2022/11/27 05:54:22;;;;;;;;;;;;;;;4.96;60.48;100865.69;3144421;28;20527;-65
2022/11/27 05:55:54;;;;;;;25.25;12.80;;;;;;;4.92;60.51;100868.31;3144162;28;19975;-65
2022/11/27 05:57:27;;;;;;;23.95;12.88;;;;;;;4.92;60.46;100865.72;3143679;28;20390;-65
2022/11/27 05:58:57;;;;;;;31.52;13.30;;;;;;;5.01;60.36;100883.75;3143861;28;20131;-66
2022/11/27 06:00:29;;;;;;;26.17;12.85;;;;;;;5.00;60.37;100884.63;3143742;28;20055;-64
2022/11/27 06:02:01;;;;;;;29.00;12.98;;;;;;;5.01;60.28;100883.75;3143910;28;20052;-66
2022/11/27 06:03:33;;;;;;;28.55;12.75;;;;;;;5.02;60.25;100880.28;3143905;28;20048;-65
2022/11/27 06:05:06;;;;;;;28.15;14.20;;;;;;;5.01;60.17;100882.03;3144082;28;20056;-64
2022/11/27 06:06:38;;;;;;;29.35;15.00;;;;;;;5.00;60.29;100882.03;3143775;28;20048;-64
2022/11/27 06:08:11;;;;;;;27.23;13.35;;;;;;;5.02;60.21;100880.28;3143416;28;20048;-64
2022/11/27 06:09:43;;;;;;;31.20;13.63;;;;;;;5.04;60.28;100883.72;3144052;28;20428;-64
2022/11/27 06:11:18;;;;;;;29.25;14.23;;;;;;;4.95;60.20;100869.16;3144011;28;20114;-65
2022/11/27 06:12:50;;;;;;;29.75;13.73;;;;;;;5.07;60.28;100890.59;3143973;28;20048;-66
2022/11/27 06:14:22;;;;;;;28.40;14.68;;;;;;;5.08;60.19;100890.59;3143803;28;20060;-66
2022/11/27 06:15:53;;;;;;;28.92;14.10;;;;;;;5.04;60.08;100883.72;3143134;28;20102;-65
2022/11/27 06:17:25;;;;;;;27.63;13.18;;;;;;;5.12;60.20;100886.28;3143757;28;20044;-65
2022/11/27 06:18:57;;;;;;;28.08;13.73;;;;;;;5.13;60.05;100894.00;3143784;28;20056;-65
2022/11/27 06:20:29;;;;;;;28.48;13.60;;;;;;;5.13;60.09;100888.84;3143644;28;20522;-65
2022/11/27 06:22:01;;;;;;;28.80;13.45;;;;;;;5.18;60.03;100891.41;3143863;28;20049;-65
2022/11/27 06:23:34;;;;;;;27.75;13.82;;;;;;;4.78;60.05;100827.06;3143982;28;20257;-65
2022/11/27 06:25:07;;;;;;;24.02;13.40;;;;;;;5.20;60.10;100887.06;3143932;28;20036;-65
2022/11/27 06:26:39;;;;;;;29.45;13.60;;;;;;;5.21;59.87;100887.09;3143959;28;20513;-64
2022/11/27 06:28:10;;;;;;;32.35;13.98;;;;;;;5.23;59.92;100889.63;3143597;28;20061;-64
2022/11/27 06:29:42;;;;;;;29.58;14.25;;;;;;;5.25;59.96;100891.34;3143606;28;20132;-64
2022/11/27 06:31:16;;;;;;;36.28;15.65;;;;;;;5.27;59.84;100887.91;3143642;28;20110;-65
2022/11/27 06:32:48;;;;;;;32.80;13.63;;;;;;;5.25;59.93;100882.75;3145542;28;20044;-64
2022/11/27 06:34:20;;;;;;;31.80;14.85;;;;;;;5.32;59.84;100886.16;3145584;28;20048;-66
2022/11/27 06:35:54;;;;;;;30.13;14.43;;;;;;;5.27;59.94;100875.88;3145831;28;20106;-65
2022/11/27 06:37:26;;;;;;;33.42;14.45;;;;;;;5.31;59.80;100882.72;3145811;28;20448;-65
2022/11/27 06:38:59;;;;;;;29.50;13.82;;;;;;;5.24;59.79;100874.16;3146140;28;20566;-65
2022/11/27 06:40:31;;;;;;;30.92;13.90;;;;;;;5.38;59.79;100893.84;3145339;28;20044;-65
2022/11/27 06:42:03;;;;;;;24.90;12.45;;;;;;;5.35;59.63;100884.41;3145324;28;20103;-65
2022/11/27 06:43:36;;;;;;;28.02;13.40;;;;;;;5.39;59.59;100890.44;3145762;28;20055;-66
2022/11/27 06:45:07;;;;;;;26.17;13.82;;;;;;;5.35;59.74;100880.97;3145957;28;20056;-64
2022/11/27 06:46:39;;;;;;;28.05;13.32;;;;;;;5.37;59.68;100887.84;3145679;28;20133;-64
2022/11/27 06:48:11;;;;;;;27.23;12.65;;;;;;;5.41;59.66;100886.97;3145916;28;20048;-65
2022/11/27 06:49:43;;;;;;;28.88;13.85;;;;;;;5.44;59.72;100888.66;3145753;28;20048;-63
2022/11/27 06:51:17;;;;;;;26.90;13.63;;;;;;;5.46;59.65;100884.34;3145417;28;20110;-65
2022/11/27 06:52:49;;;;;;;27.60;13.27;;;;;;;5.48;59.56;100891.22;3145982;28;20429;-65
2022/11/27 06:54:22;;;;;;;29.38;13.18;;;;;;;5.48;59.71;100885.19;3145652;28;20052;-66
2022/11/27 06:55:54;;;;;;;30.98;12.93;;;;;;;5.52;59.47;100891.19;3143194;28;20052;-66
2022/11/27 06:57:26;;;;;;;25.85;12.55;;;;;;;5.50;59.54;100880.84;3144847;28;20066;-65
2022/11/27 06:59:00;;;;;;;24.08;12.10;;;;;;;5.53;59.54;100883.44;3145751;28;20044;-65
2022/11/27 07:00:32;;;;;;;31.08;12.35;;;;;;;5.52;59.51;100875.69;3145300;28;20044;-65
2022/11/27 07:02:04;;;;;;;26.83;13.20;;;;;;;5.52;59.43;100871.38;3145407;28;20045;-65
2022/11/27 07:03:36;;;;;;;25.60;12.57;;;;;;;5.19;59.33;100821.66;3145358;28;20044;-65
2022/11/27 07:05:08;;;;;;;22.10;10.95;;;;;;;5.63;59.31;100890.25;3145561;28;20106;-64
2022/11/27 07:06:41;;;;;;;28.67;12.25;;;;;;;5.63;59.19;100884.22;3145566;28;20048;-64
2022/11/27 07:08:13;;;;;;;26.77;11.80;;;;;;;5.58;59.06;100873.91;3145846;28;20067;-64
2022/11/27 07:09:46;;;;;;;25.17;11.45;;;;;;;5.68;59.01;100885.91;3144823;28;20426;-64
2022/11/27 07:11:19;;;;;;;;;;;;;;;5.63;59.11;100886.81;3145181;28;20100;-64
2022/11/27 07:12:51;;;;;;;24.50;11.15;;;;;;;5.65;59.15;100891.09;3145563;28;19924;-64